Time;durP1;ratioP1;P1;durP2;ratioP2;P2;SDS_P1;SDS_P2;PMS_P1;PMS_P2;Temp;Humidity;BMP_temperature;BMP_pressure;BME280_temperature;BME280_humidity;BME280_pressure;Samples;Min_cycle;Max_cycle;Signal;HPM_P1;HPM_P2
2024/03/11 00:00:28;;;;;;;;;;;11.00;86.30;;;;;;5022035;28;87220;-47
2024/03/11 00:02:54;;;;;;;;;;;11.00;86.30;;;;;;5021695;28;87366;-47
2024/03/11 00:05:20;;;;;;;;;;;11.00;86.30;;;;;;5017032;28;87065;-46
2024/03/11 00:07:46;;;;;;;;;;;11.00;86.30;;;;;;5020385;28;87891;-47
2024/03/11 00:10:12;;;;;;;;;;;11.00;86.30;;;;;;5019258;28;87631;-47
2024/03/11 00:12:49;;;;;;;;;;;11.00;86.30;;;;;;5022798;28;88171;-46
2024/03/11 00:15:15;;;;;;;;;;;11.00;86.30;;;;;;5021958;28;87065;-48
2024/03/11 00:17:42;;;;;;;;;;;11.00;86.30;;;;;;5020907;28;87366;-47
2024/03/11 00:20:09;;;;;;;;;;;11.00;86.30;;;;;;5022684;28;87012;-46
2024/03/11 00:22:36;;;;;;;;;;;11.00;86.30;;;;;;5020747;28;88703;-45
2024/03/11 00:25:03;;;;;;;;;;;10.90;86.30;;;;;;5021946;28;86356;-47
2024/03/11 00:27:29;;;;;;;;;;;11.00;86.40;;;;;;5019242;28;87943;-46
2024/03/11 00:29:55;;;;;;;;;;;10.90;86.40;;;;;;5019030;28;88679;-47
2024/03/11 00:32:24;;;;;;;;;;;11.00;86.40;;;;;;5013950;28;87940;-46
2024/03/11 00:34:51;;;;;;;;;;;10.90;86.30;;;;;;5023426;28;90638;-46
2024/03/11 00:37:17;;;;;;;;;;;10.90;86.30;;;;;;5014058;28;86912;-47
2024/03/11 00:39:43;;;;;;;;;;;10.90;86.30;;;;;;5021141;28;86951;-47
2024/03/11 00:42:09;;;;;;;;;;;10.90;86.20;;;;;;5022421;28;88668;-46
2024/03/11 00:44:34;;;;;;;;;;;11.00;86.30;;;;;;5013264;28;87057;-45
2024/03/11 00:47:00;;;;;;;;;;;10.90;86.30;;;;;;5021709;28;86954;-47
2024/03/11 00:49:26;;;;;;;;;;;10.90;86.30;;;;;;5017368;28;87002;-46
2024/03/11 00:51:52;;;;;;;;;;;10.90;86.20;;;;;;5023529;28;87041;-47
2024/03/11 00:54:17;;;;;;;;;;;10.90;86.20;;;;;;5015419;28;87669;-46
2024/03/11 00:56:43;;;;;;;;;;;10.90;86.20;;;;;;5025367;28;89571;-46
2024/03/11 00:59:09;;;;;;;;;;;10.90;86.20;;;;;;5023810;28;87787;-46
2024/03/11 01:01:35;;;;;;;;;;;10.90;86.30;;;;;;5019744;28;86973;-46
2024/03/11 01:04:02;;;;;;;;;;;10.90;86.20;;;;;;5018269;28;87062;-46
2024/03/11 01:06:28;;;;;;;;;;;10.90;86.30;;;;;;5022123;28;88040;-46
2024/03/11 01:08:54;;;;;;;;;;;10.90;86.30;;;;;;5019358;28;88706;-47
2024/03/11 01:11:21;;;;;;;;;;;10.90;86.30;;;;;;5015988;28;86924;-47
2024/03/11 01:13:46;;;;;;;;;;;10.90;86.30;;;;;;5024181;28;86764;-45
2024/03/11 01:16:12;;;;;;;;;;;10.80;86.20;;;;;;5018540;28;87867;-47
2024/03/11 01:18:39;;;;;;;;;;;10.80;86.20;;;;;;5022585;28;87883;-46
2024/03/11 01:21:05;;;;;;;;;;;10.80;86.20;;;;;;5016210;28;88403;-45
2024/03/11 01:23:31;;;;;;;;;;;10.90;86.20;;;;;;5024660;28;86989;-46
2024/03/11 01:25:57;;;;;;;;;;;10.80;86.20;;;;;;5017536;28;87052;-47
2024/03/11 01:28:22;;;;;;;;;;;10.80;86.20;;;;;;5021388;28;88523;-46
2024/03/11 01:30:48;;;;;;;;;;;10.80;86.20;;;;;;5021883;28;87060;-46
2024/03/11 01:33:14;;;;;;;;;;;10.80;86.20;;;;;;5019274;28;88357;-47
2024/03/11 01:35:41;;;;;;;;;;;10.90;86.30;;;;;;5021587;28;87396;-46
2024/03/11 01:38:08;;;;;;;;;;;10.80;86.20;;;;;;5023605;28;86629;-45
2024/03/11 01:40:34;;;;;;;;;;;10.80;86.30;;;;;;5021208;28;87059;-45
2024/03/11 01:43:00;;;;;;;;;;;10.80;86.30;;;;;;5023902;28;87321;-47
2024/03/11 01:45:25;;;;;;;;;;;10.80;86.20;;;;;;5021330;28;87902;-47
2024/03/11 01:47:54;;;;;;;;;;;10.80;86.30;;;;;;5020686;28;87585;-47
2024/03/11 01:50:20;;;;;;;;;;;10.80;86.30;;;;;;5023157;28;86998;-47
2024/03/11 01:52:48;;;;;;;;;;;10.80;86.30;;;;;;5020795;28;86981;-49
2024/03/11 01:55:14;;;;;;;;;;;10.80;86.20;;;;;;5018456;28;87825;-46
2024/03/11 01:57:40;;;;;;;;;;;10.80;86.20;;;;;;5019571;28;87143;-46
2024/03/11 02:00:08;;;;;;;;;;;10.70;86.20;;;;;;5022029;28;87230;-47
2024/03/11 02:02:36;;;;;;;;;;;10.80;86.20;;;;;;5027152;28;87837;-45
2024/03/11 02:05:03;;;;;;;;;;;10.70;86.20;;;;;;5023928;28;87785;-46
2024/03/11 02:07:29;;;;;;;;;;;10.80;86.20;;;;;;5021987;28;86890;-47
2024/03/11 02:09:55;;;;;;;;;;;10.70;86.20;;;;;;5012109;28;88686;-46
2024/03/11 02:12:20;;;;;;;;;;;10.80;86.30;;;;;;5026520;28;87782;-47
2024/03/11 02:14:46;;;;;;;;;;;10.70;86.20;;;;;;5022715;28;88544;-45
2024/03/11 02:17:13;;;;;;;;;;;10.70;86.20;;;;;;5018775;28;86915;-46
2024/03/11 02:19:41;;;;;;;;;;;10.70;86.30;;;;;;5021538;28;88226;-47
2024/03/11 02:22:08;;;;;;;;;;;10.70;86.20;;;;;;5022935;28;89100;-47
2024/03/11 02:24:35;;;;;;;;;;;10.70;86.20;;;;;;5017288;28;87307;-46
2024/03/11 02:27:02;;;;;;;;;;;10.70;86.30;;;;;;5021583;28;88201;-46
2024/03/11 02:29:28;;;;;;;;;;;10.70;86.30;;;;;;5021463;28;87664;-46
2024/03/11 02:31:54;;;;;;;;;;;10.70;86.30;;;;;;5022736;28;87287;-47
2024/03/11 02:34:20;;;;;;;;;;;10.70;86.40;;;;;;5015862;28;88886;-47
2024/03/11 02:36:46;;;;;;;;;;;10.70;86.30;;;;;;5020861;28;87160;-48
2024/03/11 02:39:14;;;;;;;;;;;10.70;86.30;;;;;;5014107;28;86917;-46
2024/03/11 02:41:40;;;;;;;;;;;10.70;86.40;;;;;;5017237;28;88495;-45
2024/03/11 02:44:08;;;;;;;;;;;10.70;86.40;;;;;;5017520;28;86967;-47
2024/03/11 02:46:34;;;;;;;;;;;10.70;86.40;;;;;;5021668;28;87403;-44
2024/03/11 02:48:59;;;;;;;;;;;10.70;86.40;;;;;;5024166;28;87194;-46
2024/03/11 02:51:25;;;;;;;;;;;10.70;86.40;;;;;;5016734;28;87055;-47
2024/03/11 02:53:51;;;;;;;;;;;10.60;86.30;;;;;;5024249;28;87578;-47
2024/03/11 02:56:17;;;;;;;;;;;10.70;86.40;;;;;;5021672;28;87164;-47
2024/03/11 02:58:43;;;;;;;;;;;10.70;86.40;;;;;;5019623;28;87901;-47
2024/03/11 03:01:09;;;;;;;;;;;10.60;86.30;;;;;;5021645;28;88436;-47
2024/03/11 03:03:35;;;;;;;;;;;10.60;86.30;;;;;;5023232;28;87014;-47
2024/03/11 03:06:01;;;;;;;;;;;10.60;86.40;;;;;;5023245;28;87044;-46
2024/03/11 03:08:27;;;;;;;;;;;10.60;86.30;;;;;;5012604;28;86995;-47
2024/03/11 03:10:53;;;;;;;;;;;10.60;86.40;;;;;;5018531;28;87031;-46
2024/03/11 03:13:19;;;;;;;;;;;10.60;86.30;;;;;;5013753;28;88596;-48
2024/03/11 03:15:45;;;;;;;;;;;10.60;86.40;;;;;;5020976;28;86254;-47
2024/03/11 03:18:11;;;;;;;;;;;10.60;86.40;;;;;;5014255;28;87235;-48
2024/03/11 03:20:38;;;;;;;;;;;10.60;86.40;;;;;;5017735;28;87373;-46
2024/03/11 03:23:04;;;;;;;;;;;10.60;86.40;;;;;;5019579;28;88564;-45
2024/03/11 03:25:33;;;;;;;;;;;10.60;86.50;;;;;;5020840;28;88005;-47
2024/03/11 03:28:02;;;;;;;;;;;10.60;86.50;;;;;;5017623;28;87318;-47
2024/03/11 03:30:30;;;;;;;;;;;10.60;86.40;;;;;;5011798;28;88128;-46
2024/03/11 03:32:57;;;;;;;;;;;10.60;86.50;;;;;;5019099;28;88893;-47
2024/03/11 03:35:23;;;;;;;;;;;10.60;86.50;;;;;;5012349;28;87737;-47
2024/03/11 03:37:50;;;;;;;;;;;10.60;86.50;;;;;;5019012;28;87835;-46
2024/03/11 03:40:16;;;;;;;;;;;10.60;86.50;;;;;;5018444;28;86781;-50
2024/03/11 03:42:43;;;;;;;;;;;10.60;86.50;;;;;;5019336;28;87016;-48
2024/03/11 03:45:09;;;;;;;;;;;10.60;86.50;;;;;;5021709;28;86929;-48
2024/03/11 03:47:35;;;;;;;;;;;10.60;86.50;;;;;;5019220;28;89655;-48
2024/03/11 03:50:02;;;;;;;;;;;10.60;86.50;;;;;;5024599;28;87512;-49
2024/03/11 03:52:29;;;;;;;;;;;10.60;86.50;;;;;;5017236;28;88670;-47
2024/03/11 03:54:54;;;;;;;;;;;10.50;86.60;;;;;;5021827;28;86998;-46
2024/03/11 03:57:21;;;;;;;;;;;10.60;86.60;;;;;;5022221;28;87066;-47
2024/03/11 03:59:48;;;;;;;;;;;10.50;86.60;;;;;;5018783;28;88020;-45
2024/03/11 04:02:14;;;;;;;;;;;10.50;86.50;;;;;;5020269;28;86921;-46
2024/03/11 04:04:40;;;;;;;;;;;10.50;86.50;;;;;;5016462;28;87248;-46
2024/03/11 04:07:06;;;;;;;;;;;10.50;86.50;;;;;;5021900;28;88604;-47
2024/03/11 04:09:31;;;;;;;;;;;10.50;86.50;;;;;;5022448;28;87047;-47
2024/03/11 04:11:57;;;;;;;;;;;10.50;86.60;;;;;;5022372;28;87919;-47
2024/03/11 04:14:22;;;;;;;;;;;10.50;86.60;;;;;;5019109;28;87041;-47
2024/03/11 04:16:48;;;;;;;;;;;10.50;86.60;;;;;;5019594;28;87017;-46
2024/03/11 04:19:13;;;;;;;;;;;10.50;86.60;;;;;;5019803;28;88630;-45
2024/03/11 04:21:39;;;;;;;;;;;10.50;86.60;;;;;;5015086;28;87873;-47
2024/03/11 04:24:05;;;;;;;;;;;10.50;86.60;;;;;;5020627;28;87051;-46
2024/03/11 04:26:31;;;;;;;;;;;10.50;86.60;;;;;;5017682;28;88975;-47
2024/03/11 04:28:57;;;;;;;;;;;10.50;86.60;;;;;;5023109;28;86307;-47
2024/03/11 04:31:24;;;;;;;;;;;10.50;86.60;;;;;;5012502;28;87157;-46
2024/03/11 04:33:50;;;;;;;;;;;10.50;86.60;;;;;;5025485;28;88723;-45
2024/03/11 04:36:16;;;;;;;;;;;10.50;86.70;;;;;;5016771;28;87850;-46
2024/03/11 04:38:42;;;;;;;;;;;10.50;86.70;;;;;;5013722;28;87279;-47
2024/03/11 04:41:07;;;;;;;;;;;10.50;86.60;;;;;;5015474;28;87537;-46
2024/03/11 04:43:36;;;;;;;;;;;10.40;86.50;;;;;;5014291;28;86940;-47
2024/03/11 04:46:02;;;;;;;;;;;10.50;86.60;;;;;;5014757;28;88503;-46
2024/03/11 04:48:27;;;;;;;;;;;10.40;86.60;;;;;;5017846;28;86926;-47
2024/03/11 04:50:53;;;;;;;;;;;10.40;86.60;;;;;;5026222;28;86906;-45
2024/03/11 04:53:19;;;;;;;;;;;10.40;86.60;;;;;;5019823;28;87147;-47
2024/03/11 04:55:45;;;;;;;;;;;10.40;86.60;;;;;;5021214;28;88196;-46
2024/03/11 04:58:11;;;;;;;;;;;10.50;86.70;;;;;;5018249;28;88548;-47
2024/03/11 05:00:36;;;;;;;;;;;10.40;86.60;;;;;;5021673;28;88051;-45
2024/03/11 05:03:03;;;;;;;;;;;10.40;86.70;;;;;;5022312;28;89082;-46
2024/03/11 05:05:34;;;;;;;;;;;10.40;86.70;;;;;;5020782;28;88439;-47
2024/03/11 05:08:00;;;;;;;;;;;10.40;86.70;;;;;;5020577;28;88712;-46
2024/03/11 05:10:26;;;;;;;;;;;10.40;86.70;;;;;;5022620;28;87016;-46
2024/03/11 05:12:51;;;;;;;;;;;10.40;86.70;;;;;;5023848;28;88736;-45
2024/03/11 05:15:17;;;;;;;;;;;10.40;86.70;;;;;;5024076;28;87111;-45
2024/03/11 05:17:42;;;;;;;;;;;10.40;86.80;;;;;;5020226;28;86889;-47
2024/03/11 05:20:12;;;;;;;;;;;10.40;86.80;;;;;;5021867;28;86998;-46
2024/03/11 05:22:41;;;;;;;;;;;10.40;86.70;;;;;;5016172;28;87749;-45
2024/03/11 05:25:07;;;;;;;;;;;10.40;86.70;;;;;;5023891;28;88994;-45
2024/03/11 05:27:33;;;;;;;;;;;10.40;86.80;;;;;;5018685;28;87081;-47
2024/03/11 05:29:59;;;;;;;;;;;10.40;86.80;;;;;;5020873;28;88305;-46
2024/03/11 05:32:24;;;;;;;;;;;10.40;86.80;;;;;;5020518;28;87418;-46
2024/03/11 05:34:50;;;;;;;;;;;10.40;86.80;;;;;;5021128;28;88761;-47
2024/03/11 05:37:18;;;;;;;;;;;10.40;86.80;;;;;;5024082;28;87009;-46
2024/03/11 05:39:44;;;;;;;;;;;10.30;86.70;;;;;;5021980;28;87315;-47
2024/03/11 05:42:09;;;;;;;;;;;10.40;86.80;;;;;;5024794;28;88011;-46
2024/03/11 05:44:35;;;;;;;;;;;10.40;86.80;;;;;;5018656;28;87478;-45
2024/03/11 05:47:01;;;;;;;;;;;10.40;86.80;;;;;;5021341;28;86994;-46
2024/03/11 05:49:28;;;;;;;;;;;10.40;86.80;;;;;;5015322;28;88061;-46
2024/03/11 05:51:57;;;;;;;;;;;10.30;86.70;;;;;;5019051;28;88956;-47
2024/03/11 05:54:24;;;;;;;;;;;10.40;86.80;;;;;;5013316;28;87051;-46
2024/03/11 05:57:00;;;;;;;;;;;10.40;86.80;;;;;;5017673;28;88235;-46
2024/03/11 05:59:26;;;;;;;;;;;10.30;86.80;;;;;;5026088;28;88415;-46
2024/03/11 06:01:53;;;;;;;;;;;10.30;86.70;;;;;;5019822;28;87113;-46
2024/03/11 06:04:18;;;;;;;;;;;10.40;86.80;;;;;;5022798;28;87114;-46
2024/03/11 06:06:45;;;;;;;;;;;10.40;86.80;;;;;;5020849;28;86362;-46
2024/03/11 06:09:11;;;;;;;;;;;10.30;86.70;;;;;;5020041;28;86992;-46
2024/03/11 06:11:40;;;;;;;;;;;10.30;86.70;;;;;;5017122;28;87064;-46
2024/03/11 06:14:06;;;;;;;;;;;10.40;86.70;;;;;;5016514;28;88500;-45
2024/03/11 06:16:33;;;;;;;;;;;10.40;86.70;;;;;;5022540;28;88692;-45
2024/03/11 06:18:59;;;;;;;;;;;10.40;86.70;;;;;;5022680;28;87701;-46
2024/03/11 06:21:25;;;;;;;;;;;10.40;86.70;;;;;;5029059;28;87079;-45
2024/03/11 06:23:51;;;;;;;;;;;10.40;86.70;;;;;;5017465;28;88635;-47
2024/03/11 06:26:17;;;;;;;;;;;10.40;86.70;;;;;;5018777;28;87589;-46
2024/03/11 06:28:42;;;;;;;;;;;10.40;86.70;;;;;;5018817;28;87007;-46
2024/03/11 06:31:08;;;;;;;;;;;10.40;86.70;;;;;;5018728;28;86543;-46
2024/03/11 06:33:35;;;;;;;;;;;10.40;86.70;;;;;;5020234;28;87633;-46
2024/03/11 06:36:01;;;;;;;;;;;10.40;86.70;;;;;;5019665;28;87149;-45
2024/03/11 06:38:27;;;;;;;;;;;10.40;86.70;;;;;;5013215;28;88363;-46
2024/03/11 06:40:53;;;;;;;;;;;10.40;86.70;;;;;;5016104;28;86980;-47
2024/03/11 06:43:18;;;;;;;;;;;10.40;86.70;;;;;;5021630;28;87027;-47
2024/03/11 06:45:46;;;;;;;;;;;10.40;86.70;;;;;;5021141;28;86928;-46
2024/03/11 06:48:12;;;;;;;;;;;10.40;86.70;;;;;;5020547;28;87492;-46
2024/03/11 06:50:38;;;;;;;;;;;10.40;86.70;;;;;;5015373;28;87648;-47
2024/03/11 06:53:06;;;;;;;;;;;10.40;86.60;;;;;;5016501;28;88103;-45
2024/03/11 06:55:32;;;;;;;;;;;10.40;86.60;;;;;;5018234;28;88020;-46
2024/03/11 06:57:58;;;;;;;;;;;10.40;86.60;;;;;;5018624;28;87683;-47
2024/03/11 07:00:25;;;;;;;;;;;10.40;86.60;;;;;;5019352;28;86978;-47
2024/03/11 07:02:50;;;;;;;;;;;10.40;86.60;;;;;;5024040;28;88294;-47
2024/03/11 07:05:17;;;;;;;;;;;10.40;86.50;;;;;;5014808;28;87844;-46
2024/03/11 07:07:44;;;;;;;;;;;10.50;86.60;;;;;;5017019;28;87634;-46
2024/03/11 07:10:12;;;;;;;;;;;10.40;86.40;;;;;;5016041;28;88661;-46
2024/03/11 07:12:40;;;;;;;;;;;10.50;86.50;;;;;;5017289;28;87056;-46
2024/03/11 07:15:06;;;;;;;;;;;10.50;86.50;;;;;;5020256;28;87064;-47
2024/03/11 07:17:31;;;;;;;;;;;10.50;86.50;;;;;;5017981;28;88418;-46
2024/03/11 07:19:57;;;;;;;;;;;10.50;87.10;;;;;;5021539;28;86563;-45
2024/03/11 07:22:23;;;;;;;;;;;10.50;86.50;;;;;;5021431;28;87463;-45
2024/03/11 07:24:50;;;;;;;;;;;10.50;86.50;;;;;;5019058;28;87765;-46
2024/03/11 07:27:16;;;;;;;;;;;10.50;86.60;;;;;;5023047;28;88029;-46
2024/03/11 07:29:45;;;;;;;;;;;10.50;86.60;;;;;;5013250;28;88909;-46
2024/03/11 07:32:11;;;;;;;;;;;10.50;86.60;;;;;;5019331;28;88646;-48
2024/03/11 07:34:39;;;;;;;;;;;10.50;86.70;;;;;;5017314;28;87752;-46
2024/03/11 07:37:12;;;;;;;;;;;10.50;86.60;;;;;;5018840;28;88491;-45
2024/03/11 07:39:37;;;;;;;;;;;10.50;86.70;;;;;;5016586;28;88615;-47
2024/03/11 07:42:03;;;;;;;;;;;10.50;86.80;;;;;;5017947;28;86855;-46
2024/03/11 07:44:28;;;;;;;;;;;10.50;86.80;;;;;;5024087;28;86832;-46
2024/03/11 07:46:54;;;;;;;;;;;10.40;86.80;;;;;;5022463;28;87611;-46
2024/03/11 07:49:20;;;;;;;;;;;10.50;86.90;;;;;;5017850;28;88027;-46
2024/03/11 07:51:46;;;;;;;;;;;10.40;86.80;;;;;;5018767;28;88158;-47
2024/03/11 07:54:12;;;;;;;;;;;10.50;86.90;;;;;;5017540;28;88815;-46
2024/03/11 07:56:38;;;;;;;;;;;10.40;86.80;;;;;;5020339;28;89991;-47
2024/03/11 07:59:05;;;;;;;;;;;10.40;86.90;;;;;;5016564;28;87250;-45
2024/03/11 08:01:31;;;;;;;;;;;10.50;86.90;;;;;;5020463;28;87712;-44
2024/03/11 08:03:57;;;;;;;;;;;10.40;86.90;;;;;;5018893;28;87926;-47
2024/03/11 08:06:22;;;;;;;;;;;10.50;87.00;;;;;;5015718;28;87102;-46
2024/03/11 08:08:52;;;;;;;;;;;10.50;87.20;;;;;;5018536;28;87388;-47
2024/03/11 08:11:21;;;;;;;;;;;10.50;87.10;;;;;;5017386;28;86998;-47
2024/03/11 08:13:46;;;;;;;;;;;10.50;87.10;;;;;;5013503;28;86947;-46
2024/03/11 08:16:12;;;;;;;;;;;10.50;87.20;;;;;;5015967;28;87873;-46
2024/03/11 08:18:42;;;;;;;;;;;10.50;87.10;;;;;;5020467;28;88588;-45
2024/03/11 08:21:10;;;;;;;;;;;10.50;87.20;;;;;;5021420;28;88099;-47
2024/03/11 08:23:40;;;;;;;;;;;10.50;87.20;;;;;;5022172;28;87888;-45
2024/03/11 08:26:09;;;;;;;;;;;10.50;87.20;;;;;;5014266;28;87429;-47
2024/03/11 08:28:39;;;;;;;;;;;10.50;87.20;;;;;;5020699;28;87959;-45
2024/03/11 08:31:08;;;;;;;;;;;10.50;87.20;;;;;;5015287;28;88783;-45
2024/03/11 08:33:35;;;;;;;;;;;10.50;87.30;;;;;;5019020;28;86789;-47
2024/03/11 08:36:04;;;;;;;;;;;10.50;87.20;;;;;;5022613;28;88538;-47
2024/03/11 08:38:38;;;;;;;;;;;10.50;87.20;;;;;;5019436;28;87062;-47
2024/03/11 08:41:06;;;;;;;;;;;10.50;87.20;;;;;;5017975;28;88448;-45
2024/03/11 08:43:32;;;;;;;;;;;10.50;87.30;;;;;;5018491;28;87603;-46
2024/03/11 08:45:58;;;;;;;;;;;10.50;87.30;;;;;;5016860;28;87671;-47
2024/03/11 08:48:24;;;;;;;;;;;10.60;87.40;;;;;;5015728;28;88116;-47
2024/03/11 08:50:50;;;;;;;;;;;10.60;87.40;;;;;;5020936;28;87015;-47
2024/03/11 08:53:15;;;;;;;;;;;10.50;87.30;;;;;;5019727;28;87445;-48
2024/03/11 08:55:42;;;;;;;;;;;10.50;87.30;;;;;;5020151;28;87484;-48
2024/03/11 08:58:09;;;;;;;;;;;10.60;87.40;;;;;;5015733;28;86711;-47
2024/03/11 09:00:36;;;;;;;;;;;10.60;87.40;;;;;;5018497;28;87056;-45
2024/03/11 09:03:05;;;;;;;;;;;10.60;87.30;;;;;;5018497;28;87643;-48
2024/03/11 09:05:31;;;;;;;;;;;10.60;87.30;;;;;;5014529;28;88027;-47
2024/03/11 09:08:03;;;;;;;;;;;10.60;87.40;;;;;;5017122;28;88863;-46
2024/03/11 09:10:28;;;;;;;;;;;10.60;87.30;;;;;;5012838;28;87693;-48
2024/03/11 09:12:54;;;;;;;;;;;10.60;87.30;;;;;;5024851;28;86993;-47
2024/03/11 09:15:23;;;;;;;;;;;10.70;87.50;;;;;;5018505;28;87670;-48
2024/03/11 09:17:50;;;;;;;;;;;10.60;87.40;;;;;;5013855;28;87604;-48
2024/03/11 09:20:16;;;;;;;;;;;10.70;87.50;;;;;;5018800;28;87348;-46
2024/03/11 09:22:49;;;;;;;;;;;10.70;87.30;;;;;;5019137;28;87784;-46
2024/03/11 09:25:18;;;;;;;;;;;10.70;87.30;;;;;;5016638;28;88174;-46
2024/03/11 09:27:44;;;;;;;;;;;10.70;87.50;;;;;;5020222;28;87891;-47
2024/03/11 09:30:11;;;;;;;;;;;10.70;87.60;;;;;;5016530;28;89997;-46
2024/03/11 09:32:37;;;;;;;;;;;10.70;87.50;;;;;;5014767;28;87757;-45
2024/03/11 09:35:05;;;;;;;;;;;10.70;87.50;;;;;;5024757;28;87009;-47
2024/03/11 09:37:31;;;;;;;;;;;10.80;87.60;;;;;;5018161;28;87127;-47
2024/03/11 09:39:57;;;;;;;;;;;10.80;87.70;;;;;;5024431;28;87333;-46
2024/03/11 09:42:24;;;;;;;;;;;10.80;87.60;;;;;;5025043;28;87586;-46
2024/03/11 09:44:51;;;;;;;;;;;10.80;87.70;;;;;;5020100;28;87160;-47
2024/03/11 09:47:16;;;;;;;;;;;10.80;87.70;;;;;;5018459;28;86874;-47
2024/03/11 09:49:42;;;;;;;;;;;10.80;87.70;;;;;;5018972;28;87760;-47
2024/03/11 09:52:09;;;;;;;;;;;10.80;87.70;;;;;;5025028;28;87164;-45
2024/03/11 09:54:35;;;;;;;;;;;10.80;87.70;;;;;;5017397;28;88082;-48
2024/03/11 09:57:04;;;;;;;;;;;10.80;87.90;;;;;;5022016;28;87068;-46
2024/03/11 09:59:30;;;;;;;;;;;10.80;87.90;;;;;;5017079;28;87740;-46
2024/03/11 10:01:56;;;;;;;;;;;10.80;87.90;;;;;;5015191;28;88699;-47
2024/03/11 10:04:22;;;;;;;;;;;10.80;87.90;;;;;;5019217;28;87619;-45
2024/03/11 10:06:57;;;;;;;;;;;10.80;87.80;;;;;;5018512;28;87813;-47
2024/03/11 10:09:24;;;;;;;;;;;10.80;88.00;;;;;;5018099;28;87428;-47
2024/03/11 10:12:00;;;;;;;;;;;10.90;88.10;;;;;;5024170;28;86976;-46
2024/03/11 10:14:26;;;;;;;;;;;10.80;88.10;;;;;;5020775;28;87346;-46
2024/03/11 10:16:52;;;;;;;;;;;10.80;88.20;;;;;;5020742;28;87732;-46
2024/03/11 10:19:20;;;;;;;;;;;10.80;88.20;;;;;;5021519;28;87934;-48
2024/03/11 10:21:48;;;;;;;;;;;10.80;88.20;;;;;;5016492;28;87699;-47
2024/03/11 10:24:15;;;;;;;;;;;10.90;88.10;;;;;;5018865;28;88061;-46
2024/03/11 10:26:41;;;;;;;;;;;10.90;88.30;;;;;;5019523;28;87942;-47
2024/03/11 10:29:16;;;;;;;;;;;10.90;88.20;;;;;;5014760;28;87444;-47
2024/03/11 10:31:44;;;;;;;;;;;10.90;88.20;;;;;;5018946;28;87363;-45
2024/03/11 10:34:20;;;;;;;;;;;10.90;88.20;;;;;;5018677;28;86991;-46
2024/03/11 10:36:49;;;;;;;;;;;10.90;88.20;;;;;;5022177;28;87089;-47
2024/03/11 10:39:25;;;;;;;;;;;10.90;88.30;;;;;;5015107;28;88920;-47
2024/03/11 10:41:52;;;;;;;;;;;10.90;88.20;;;;;;5023030;28;87201;-46
2024/03/11 10:44:29;;;;;;;;;;;11.00;88.30;;;;;;5014884;28;89045;-47
2024/03/11 10:47:02;;;;;;;;;;;11.00;88.40;;;;;;5018966;28;88145;-47
2024/03/11 10:49:27;;;;;;;;;;;11.00;88.50;;;;;;5014765;28;88334;-47
2024/03/11 10:51:56;;;;;;;;;;;11.00;88.20;;;;;;5020089;28;86980;-46
2024/03/11 10:54:31;;;;;;;;;;;11.00;88.60;;;;;;5016250;28;87082;-47
2024/03/11 10:56:58;;;;;;;;;;;11.00;88.50;;;;;;5017276;28;87867;-46
2024/03/11 10:59:29;;;;;;;;;;;11.00;88.50;;;;;;5018351;28;87048;-47
2024/03/11 11:01:57;;;;;;;;;;;11.00;88.70;;;;;;5022605;28;87859;-45
2024/03/11 11:04:28;;;;;;;;;;;11.00;88.60;;;;;;5019522;28;87075;-47
2024/03/11 11:06:56;;;;;;;;;;;11.00;88.60;;;;;;5010075;28;87953;-49
2024/03/11 11:09:21;;;;;;;;;;;11.00;88.70;;;;;;5017622;28;89073;-46
2024/03/11 11:11:54;;;;;;;;;;;11.00;88.50;;;;;;5021750;28;88675;-47
2024/03/11 11:14:27;;;;;;;;;;;11.00;88.40;;;;;;5020540;28;86914;-47
2024/03/11 11:16:55;;;;;;;;;;;11.00;88.50;;;;;;5016853;28;88731;-47
2024/03/11 11:19:32;;;;;;;;;;;11.00;88.40;;;;;;5018097;28;87090;-48
2024/03/11 11:22:00;;;;;;;;;;;11.00;88.50;;;;;;5020133;28;88223;-47
2024/03/11 11:24:39;;;;;;;;;;;11.00;88.40;;;;;;5020401;28;87874;-48
2024/03/11 11:27:13;;;;;;;;;;;11.00;88.40;;;;;;5018314;28;87894;-48
2024/03/11 11:29:39;;;;;;;;;;;11.10;88.50;;;;;;5018963;28;88573;-47
2024/03/11 11:32:11;;;;;;;;;;;11.00;88.50;;;;;;5019597;28;87003;-47
2024/03/11 11:34:45;;;;;;;;;;;11.00;88.60;;;;;;5014984;28;88409;-46
2024/03/11 11:37:23;;;;;;;;;;;11.10;88.50;;;;;;5018508;28;88820;-47
2024/03/11 11:39:54;;;;;;;;;;;11.10;88.50;;;;;;5019863;28;87048;-47
2024/03/11 11:42:37;;;;;;;;;;;11.10;88.50;;;;;;5011325;28;88074;-46
2024/03/11 11:45:06;;;;;;;;;;;11.10;88.50;;;;;;5014202;28;88572;-46
2024/03/11 11:47:32;;;;;;;;;;;11.10;88.50;;;;;;5021622;28;87305;-46
2024/03/11 11:49:59;;;;;;;;;;;11.10;88.50;;;;;;5020342;28;87687;-48
2024/03/11 11:52:26;;;;;;;;;;;11.10;88.50;;;;;;5020519;28;86324;-47
2024/03/11 11:54:52;;;;;;;;;;;11.10;88.60;;;;;;5019572;28;87031;-47
2024/03/11 11:57:21;;;;;;;;;;;11.10;89.10;;;;;;5018127;28;88676;-47
2024/03/11 11:59:55;;;;;;;;;;;11.10;88.60;;;;;;5018330;28;87985;-46
2024/03/11 12:02:21;;;;;;;;;;;11.10;88.50;;;;;;5018740;28;88909;-46
2024/03/11 12:05:05;;;;;;;;;;;11.10;88.50;;;;;;5017330;28;87514;-47
2024/03/11 12:07:38;;;;;;;;;;;11.10;88.50;;;;;;5021405;28;88717;-46
2024/03/11 12:10:05;;;;;;;;;;;11.10;88.50;;;;;;5024696;28;87302;-47
2024/03/11 12:12:32;;;;;;;;;;;11.10;88.50;;;;;;5016689;28;87013;-47
2024/03/11 12:14:58;;;;;;;;;;;11.10;88.60;;;;;;5014056;28;87933;-47
2024/03/11 12:17:29;;;;;;;;;;;11.20;88.60;;;;;;5015394;28;86933;-47
2024/03/11 12:22:38;;;;;;;;;;;11.10;88.60;;;;;;5019686;28;86880;-47
2024/03/11 12:25:04;;;;;;;;;;;11.20;88.60;;;;;;5014899;28;88479;-47
2024/03/11 12:27:30;;;;;;;;;;;11.10;88.60;;;;;;5018609;28;87128;-47
2024/03/11 12:30:03;;;;;;;;;;;11.20;88.70;;;;;;5022313;28;88063;-47
2024/03/11 12:32:30;;;;;;;;;;;11.20;88.60;;;;;;5022829;28;88421;-47
2024/03/11 12:34:58;;;;;;;;;;;11.20;88.70;;;;;;5019466;28;87261;-47
2024/03/11 12:37:23;;;;;;;;;;;11.20;89.30;;;;;;5020102;28;87328;-46
2024/03/11 12:39:49;;;;;;;;;;;11.20;88.70;;;;;;5014272;28;87671;-47
2024/03/11 12:42:25;;;;;;;;;;;11.20;88.70;;;;;;5016455;28;87002;-47
2024/03/11 12:44:54;;;;;;;;;;;11.20;88.80;;;;;;5017388;28;87784;-47
2024/03/11 12:47:20;;;;;;;;;;;11.20;88.80;;;;;;5020819;28;87406;-45
2024/03/11 12:49:46;;;;;;;;;;;11.20;88.80;;;;;;5019382;28;87944;-47
2024/03/11 12:52:14;;;;;;;;;;;11.20;89.50;;;;;;5019619;28;88396;-47
2024/03/11 12:54:39;;;;;;;;;;;11.20;88.80;;;;;;5021171;28;87114;-45
2024/03/11 12:57:10;;;;;;;;;;;11.20;88.90;;;;;;5017507;28;88827;-47
2024/03/11 12:59:37;;;;;;;;;;;11.20;88.90;;;;;;5015567;28;87190;-46
2024/03/11 13:02:16;;;;;;;;;;;11.20;88.90;;;;;;5020378;28;86990;-47
2024/03/11 13:04:49;;;;;;;;;;;11.20;89.00;;;;;;5019511;28;88958;-47
2024/03/11 13:07:15;;;;;;;;;;;11.20;88.90;;;;;;5017800;28;87029;-46
2024/03/11 13:09:41;;;;;;;;;;;11.20;89.00;;;;;;5016197;28;87104;-48
2024/03/11 13:12:16;;;;;;;;;;;11.20;89.10;;;;;;5022738;28;88512;-47
2024/03/11 13:14:41;;;;;;;;;;;11.20;89.00;;;;;;5023977;28;88008;-47
2024/03/11 13:17:09;;;;;;;;;;;11.30;89.00;;;;;;5019844;28;88747;-45
2024/03/11 13:19:35;;;;;;;;;;;11.30;89.00;;;;;;5014610;28;87111;-46
2024/03/11 13:22:17;;;;;;;;;;;11.30;88.90;;;;;;5023294;28;87116;-46
2024/03/11 13:24:50;;;;;;;;;;;11.30;89.50;;;;;;5021474;28;87496;-49
2024/03/11 13:27:17;;;;;;;;;;;11.30;89.00;;;;;;5021454;28;87149;-47
2024/03/11 13:29:43;;;;;;;;;;;11.30;89.60;;;;;;5020742;28;87907;-47
2024/03/11 13:32:08;;;;;;;;;;;11.30;88.90;;;;;;5021913;28;89842;-46
2024/03/11 13:34:34;;;;;;;;;;;11.30;88.80;;;;;;5024508;28;87041;-47
2024/03/11 13:37:00;;;;;;;;;;;11.30;88.90;;;;;;5020927;28;86939;-47
2024/03/11 13:39:35;;;;;;;;;;;11.30;88.90;;;;;;5021207;28;88866;-46
2024/03/11 13:42:03;;;;;;;;;;;11.30;88.90;;;;;;5014811;28;89536;-46
2024/03/11 13:44:28;;;;;;;;;;;11.30;88.80;;;;;;5018287;28;88105;-46
2024/03/11 13:46:54;;;;;;;;;;;11.40;88.80;;;;;;5020111;28;87045;-46
2024/03/11 13:49:22;;;;;;;;;;;11.30;88.80;;;;;;5019579;28;86884;-46
2024/03/11 13:51:49;;;;;;;;;;;11.30;88.70;;;;;;5021519;28;88785;-46
2024/03/11 13:54:14;;;;;;;;;;;11.40;88.80;;;;;;5018279;28;87154;-45
2024/03/11 13:56:40;;;;;;;;;;;11.40;88.80;;;;;;5023755;28;87064;-46
2024/03/11 13:59:08;;;;;;;;;;;11.30;88.90;;;;;;5022763;28;88839;-44
2024/03/11 14:01:34;;;;;;;;;;;11.40;89.00;;;;;;5020809;28;87515;-45
2024/03/11 14:04:00;;;;;;;;;;;11.40;89.00;;;;;;5015685;28;89016;-44
2024/03/11 14:06:25;;;;;;;;;;;11.40;88.80;;;;;;5019025;28;87700;-46
2024/03/11 14:08:51;;;;;;;;;;;11.40;88.80;;;;;;5017904;28;87767;-46
2024/03/11 14:11:18;;;;;;;;;;;11.40;88.80;;;;;;5016079;28;87667;-45
2024/03/11 14:13:44;;;;;;;;;;;11.40;88.80;;;;;;5016460;28;87312;-45
2024/03/11 14:16:12;;;;;;;;;;;11.40;88.80;;;;;;5015224;28;87939;-45
2024/03/11 14:18:42;;;;;;;;;;;11.40;88.90;;;;;;5018001;28;87235;-44